Abingdon, Iowa
Current Conditions -  °F | °C
As of 11:55 PM on Saturday 20 Dec 2014 (Local Time) from KFFL Reporting Station
Haze Haze  
Wind Chill: 30°   Ceiling: 300
Heat Index: 36°   Visibility: 2.5mi
Dew Point: 36°   Wind: 7mph
Humidity: 100%   Direction: 160°SSE
Pressure: 30.15"   Gusts: NA
Location:  40.9883°N, 92.1215°W
Report Text: KFFL 210555Z AUTO 16006KT 2 1/2SM BR OVC003 02/02 A3015 RMK AO2
Loading
Personal Weather Stations






























Interactive Weather Map New forecast layout! Learn more

10-Day Weather Forecast

Advertisements
Track Severe Weather on mobile